Calicut International Airport

Jump to: basic info | weather | frequencies | runways | comments

Related pages: nearby airports | nearby navaids | notams | map

Basic information (top)

Codes: CCJ VOCL
Location: lon 11.136800, lat 75.955299, elev 342 ft / 104 m msl
Status: large_airport
Scheduled airline service: yes
Links: Wikipedia Mobile

Weather (top)

Current conditions (rec'd 2014/04/17 13:00Z):

VOCL 171300Z 29007KT 7000 FEW015 FEW025CB 30/23 Q1008 NOSIG

Airport forecast (rec'd 2014/04/16 00:00Z):

TAF VOCL 162100Z 1700/1806 00000KT 5000 HZ SCT015 SCT100 
      TEMPO 1700/1703 3000 HZ 
      BECMG 1704/1705 30005KT 6000 
      TEMPO 1710/174 3000 HZ TSRA/RA SCT010 FEW025CB BKN080 
      BECMG 1716/1717 00000KT 5000 HZ 
      TEMPO 1800/1803 3000 BR/HZ 
      BECMG 1804/1805 30005KT 6000 

Frequencies (top)

Verify before use: may be inaccurate or out of date.

ATIS: 127 MHz (ATIS)
TWR: 122.95 MHz (TWR)

Runways (top)

10/28: 9,383 x 150 ft (2,860 x 46 m) — paved — lighted

Latest comments (top)

Moideenkutty oorakam ( CCJ ): Calicut int airport ( Terminal,1 - ... [read]

Info: Calicut International Airport ... [read]

More... (top)

See also NOTAMs and nearby airports and navaids, or visit the Calicut International Airport page at the main OurAirports website..